Time;durP1;ratioP1;P1;durP2;ratioP2;P2;SDS_P1;SDS_P2;PMS_P1;PMS_P2;Temp;Humidity;BMP_temperature;BMP_pressure;BME280_temperature;BME280_humidity;BME280_pressure;Samples;Min_cycle;Max_cycle;Signal;HPM_P1;HPM_P2
2023/08/08 00:02:15;;;;;;;9.80;2.60;;;;;;;13.30;77.86;99823.46;126272;1304;635900;-65
2023/08/08 00:06:15;;;;;;;;;;;;;;;;;;;;;
2023/08/08 00:10:09;;;;;;;;;;;;;;;;;;;;;
2023/08/08 00:14:03;;;;;;;4.20;2.10;;;;;;;13.40;77.79;99835.38;123282;1290;5424516;-65
2023/08/08 00:18:04;;;;;;;5.30;2.20;;;;;;;13.44;77.94;99838.52;126839;1292;115191;-63
2023/08/08 00:21:43;;;;;;;;;;;;;;;;;;;;;
2023/08/08 00:25:38;;;;;;;4.20;1.80;;;;;;;13.54;77.98;99835.31;125814;1304;129628;-70
2023/08/08 00:29:31;;;;;;;;;;;;;;;;;;;;;
2023/08/08 00:33:29;;;;;;;5.60;1.90;;;;;;;13.63;77.89;99833.05;125339;1308;114992;-65
2023/08/08 00:37:24;;;;;;;8.20;2.20;;;;;;;13.68;77.99;99835.21;125128;1326;114880;-63
2023/08/08 00:41:09;;;;;;;5.20;2.10;;;;;;;13.72;77.69;99837.48;124571;1310;115070;-70
2023/08/08 00:45:01;;;;;;;;;;;;;;;;;;;;;
2023/08/08 00:49:02;;;;;;;6.20;2.90;;;;;;;13.79;77.35;99842.34;125360;1301;115750;-64
2023/08/08 00:52:54;;;;;;;;;;;;;;;;;;;;;
2023/08/08 00:56:45;;;;;;;;;;;;;;;;;;;;;
2023/08/08 01:00:39;;;;;;;;;;;;;;;;;;;;;
2023/08/08 01:08:52;;;;;;;9.30;3.10;;;;;;;13.89;76.73;99849.24;125947;1297;636061;-68
2023/08/08 01:12:45;;;;;;;3.30;2.20;;;;;;;13.85;76.51;99852.71;128332;1281;128005;-65
2023/08/08 01:16:38;;;;;;;3.80;2.20;;;;;;;13.83;76.57;99856.23;128688;1276;115212;-68
2023/08/08 01:20:40;;;;;;;5.30;2.40;;;;;;;13.80;76.38;99854.66;127985;1299;115191;-64
2023/08/08 01:24:36;;;;;;;;;;;;;;;;;;;;;
2023/08/08 01:28:29;;;;;;;3.90;2.50;;;;;;;13.64;76.27;99852.90;127148;1292;115267;-64
2023/08/08 01:32:22;;;;;;;;;;;;;;;;;;;;;
2023/08/08 01:36:09;;;;;;;4.10;2.40;;;;;;;13.45;76.30;99858.85;125951;1316;129630;-65
2023/08/08 01:39:58;;;;;;;6.00;2.30;;;;;;;13.35;76.15;99860.57;125365;1320;115269;-64
2023/08/08 01:43:33;;;;;;;;;;;;;;;;;;;;;
2023/08/08 01:47:35;;;;;;;5.60;2.40;;;;;;;13.16;76.36;99848.83;124838;1313;114957;-65
2023/08/08 01:51:11;;;;;;;6.40;2.60;;;;;;;13.05;76.46;99842.34;124622;1329;115026;-65
2023/08/08 01:54:43;;;;;;;;;;;;;;;12.96;76.43;99840.59;124520;1313;129637;-64
2023/08/08 01:58:22;;;;;;;;;;;;;;;;;;;;;
2023/08/08 02:02:36;;;;;;;;;;;;;;;;;;;;;
2023/08/08 02:06:37;;;;;;;5.80;2.30;;;;;;;12.71;76.85;99840.35;129052;1289;129059;-63
2023/08/08 02:10:23;;;;;;;4.90;1.90;;;;;;;12.63;77.15;99844.80;129830;1281;116380;-68
2023/08/08 02:14:12;;;;;;;7.20;2.80;;;;;;;12.55;77.09;99847.64;129831;1264;114809;-65
2023/08/08 02:18:07;;;;;;;;;;;;;;;;;;;;;
2023/08/08 02:21:50;;;;;;;4.80;3.10;;;;;;;12.38;77.52;99857.13;127597;1289;115564;-64
2023/08/08 02:25:33;;;;;;;5.90;2.10;;;;;;;12.29;77.60;99856.06;127737;1286;115010;-67
2023/08/08 02:29:31;;;;;;;5.20;2.70;;;;;;;12.22;77.75;99853.30;127516;1281;129004;-68
2023/08/08 02:33:07;;;;;;;5.00;2.40;;;;;;;12.16;77.59;99854.58;126867;1292;116495;-68
2023/08/08 02:37:02;;;;;;;9.20;2.70;;;;;;;12.10;77.86;99853.16;126931;1292;115093;-69
2023/08/08 02:40:40;;;;;;;10.60;2.60;;;;;;;12.03;77.79;99858.60;126529;1302;114749;-69
2023/08/08 02:44:24;;;;;;;3.70;2.20;;;;;;;11.97;77.81;99854.09;126419;1289;114766;-67
2023/08/08 02:48:24;;;;;;;5.50;2.70;;;;;;;11.91;78.26;99851.25;126399;1313;127789;-69
2023/08/08 02:52:09;;;;;;;;;;;;;;;;;;;;;
2023/08/08 02:56:11;;;;;;;;;;;;;;;;;;;;;
2023/08/08 03:00:02;;;;;;;;;;;;;;;;;;;;;
2023/08/08 03:04:05;;;;;;;;;;;;;;;;;;;;;
2023/08/08 03:07:51;;;;;;;5.80;2.30;;;;;;;11.64;79.16;99869.06;126867;1308;128080;-65
2023/08/08 03:11:41;;;;;;;;;;;;;;;;;;;;;
2023/08/08 03:15:42;;;;;;;;;;;;;;;;;;;;;
2023/08/08 03:19:59;;;;;;;5.60;2.60;;;;;;;11.50;79.03;99888.25;126520;1295;114830;-64
2023/08/08 03:23:50;;;;;;;5.60;2.60;;;;;;;11.47;79.23;99886.64;125429;1323;114960;-65
2023/08/08 03:27:30;;;;;;;;;;;;;;;;;;;;;
2023/08/08 03:31:33;;;;;;;4.10;2.30;;;;;;;11.42;79.49;99889.48;125991;1318;116436;-64
2023/08/08 03:39:50;;;;;;;5.60;3.10;;;;;;;11.42;79.39;99891.23;125976;1292;635704;-64
2023/08/08 03:43:38;;;;;;;;;;;;;;;;;;;;;
2023/08/08 03:47:27;;;;;;;;;;;;;;;;;;;;;
2023/08/08 03:51:06;;;;;;;;;;;;;;;;;;;;;
2023/08/08 03:55:06;;;;;;;7.70;3.20;;;;;;;11.43;79.99;99912.52;123648;1304;114811;-66
2023/08/08 03:59:10;;;;;;;4.30;2.30;;;;;;;11.44;80.15;99916.74;126759;1292;114953;-63
2023/08/08 04:02:56;;;;;;;;;;;;;;;;;;;;;
2023/08/08 04:06:37;;;;;;;10.40;2.50;;;;;;;11.49;80.16;99924.47;125616;1303;129656;-66
2023/08/08 04:10:30;;;;;;;9.80;2.70;;;;;;;11.52;79.99;99922.13;125713;1303;115251;-65
2023/08/08 04:14:09;;;;;;;;;;;;;;;;;;;;;
2023/08/08 04:18:10;;;;;;;;;;;;;;;;;;;;;
2023/08/08 04:22:33;;;;;;;5.70;2.50;;;;;;;11.70;80.07;99929.28;126066;1293;635746;-67
2023/08/08 04:26:28;;;;;;;9.30;2.70;;;;;;;11.78;80.20;99930.27;128040;1289;129219;-66
2023/08/08 04:29:59;;;;;;;;;;;;;;;;;;;;;
2023/08/08 04:33:58;;;;;;;8.00;2.40;;;;;;;11.97;80.21;99943.98;127359;1290;114837;-67
2023/08/08 04:37:41;;;;;;;3.40;2.40;;;;;;;12.10;80.19;99941.77;123213;1289;114946;-65
2023/08/08 04:41:44;;;;;;;18.10;3.00;;;;;;;12.23;80.08;99945.30;126105;1296;115053;-66
2023/08/08 04:45:17;;;;;;;;;;;;;;;;;;;;;
2023/08/08 04:49:17;;;;;;;4.80;2.20;;;;;;;12.54;79.81;99954.29;125897;1301;127703;-64
2023/08/08 04:53:04;;;;;;;6.00;2.30;;;;;;;12.72;79.58;99956.73;124982;1310;115272;-63
2023/08/08 04:56:45;;;;;;;3.70;2.10;;;;;;;12.98;79.54;99959.91;124377;1305;115270;-66
2023/08/08 05:00:30;;;;;;;4.70;2.30;;;;;;;13.36;79.36;99965.88;125000;1326;115081;-67
2023/08/08 05:04:25;;;;;;;8.50;2.20;;;;;;;13.70;79.09;99966.84;125707;1316;114926;-63
2023/08/08 05:08:18;;;;;;;12.20;2.30;;;;;;;14.06;78.86;99969.20;126048;1316;130251;-64
2023/08/08 05:12:01;;;;;;;;;;;;;;;;;;;;;
2023/08/08 05:15:49;;;;;;;;;;;;;;;;;;;;;
2023/08/08 05:19:59;;;;;;;6.10;2.20;;;;;;;14.74;77.81;99983.17;127318;1300;114881;-64
2023/08/08 05:23:52;;;;;;;5.10;2.40;;;;;;;15.19;77.40;99979.54;127246;1304;114940;-67
2023/08/08 05:27:51;;;;;;;11.30;2.60;;;;;;;15.49;76.58;99980.75;128092;1275;129156;-68
2023/08/08 05:31:49;;;;;;;3.10;2.00;;;;;;;15.64;75.72;99984.77;128700;1275;115244;-64
2023/08/08 05:35:39;;;;;;;6.90;2.40;;;;;;;15.74;75.27;99987.28;128132;1281;114909;-65
2023/08/08 05:39:35;;;;;;;5.70;2.30;;;;;;;15.77;75.00;99987.59;127047;1301;114870;-64
2023/08/08 05:43:23;;;;;;;6.60;2.60;;;;;;;15.85;74.75;99982.88;126664;1295;114917;-67
2023/08/08 05:47:10;;;;;;;6.00;2.30;;;;;;;15.93;74.40;99983.38;126769;1292;129619;-64
2023/08/08 05:50:39;;;;;;;;;;;;;;;;;;;;;
2023/08/08 05:54:26;;;;;;;3.90;1.90;;;;;;;16.47;74.21;99983.34;126484;1292;114867;-67
2023/08/08 05:58:00;;;;;;;;;;;;;;;;;;;;;
2023/08/08 06:01:58;;;;;;;5.00;2.30;;;;;;;17.44;73.43;99982.36;126229;1292;636104;-64
2023/08/08 06:05:41;;;;;;;5.50;1.90;;;;;;;17.83;72.33;99980.19;129031;1289;128902;-67
2023/08/08 06:09:32;;;;;;;;;;;;;;;;;;;;;
2023/08/08 06:13:05;;;;;;;7.90;2.10;;;;;;;18.33;70.69;99985.31;128400;1279;114944;-63
2023/08/08 06:17:00;;;;;;;;;;;;;;;;;;;;;
2023/08/08 06:20:56;;;;;;;;;;;;;;;;;;;;;
2023/08/08 06:24:56;;;;;;;;;;;;;;;;;;;;;
2023/08/08 06:28:11;;;;;;;4.70;1.80;;;;;;;19.40;67.34;99974.08;125923;1301;128603;-63
2023/08/08 06:31:56;;;;;;;2.00;1.70;;;;;;;19.65;66.94;99971.36;125822;1295;114946;-67
2023/08/08 06:35:50;;;;;;;3.10;2.00;;;;;;;20.16;66.44;99974.64;125510;1306;114914;-66
2023/08/08 06:39:43;;;;;;;;;;;;;;;;;;;;;
2023/08/08 06:43:22;;;;;;;4.40;1.90;;;;;;;21.14;64.81;99974.82;124485;1316;115079;-65
2023/08/08 06:46:58;;;;;;;3.50;1.60;;;;;;;21.50;63.70;99973.08;124925;1326;128794;-64
2023/08/08 06:50:53;;;;;;;3.80;1.50;;;;;;;21.81;62.68;99971.28;125087;1312;115260;-65
2023/08/08 06:54:41;;;;;;;4.00;1.30;;;;;;;22.14;61.24;99965.16;124872;1325;116684;-63
2023/08/08 06:58:21;;;;;;;6.70;1.70;;;;;;;22.35;60.22;99967.84;124988;1317;114948;-65
2023/08/08 07:01:50;;;;;;;7.00;1.80;;;;;;;22.40;59.56;99969.33;125731;1316;115001;-65
2023/08/08 07:05:29;;;;;;;;;;;;;;;;;;;;;
2023/08/08 07:09:16;;;;;;;;;;;;;;;;;;;;;
2023/08/08 07:12:56;;;;;;;;;;;;;;;;;;;;;
2023/08/08 07:16:27;;;;;;;3.20;1.20;;;;;;;23.36;56.31;99949.95;126432;1288;114961;-64
2023/08/08 07:19:59;;;;;;;2.50;1.20;;;;;;;23.54;55.64;99942.45;126605;1310;114955;-65
2023/08/08 07:23:52;;;;;;;2.10;1.30;;;;;;;23.69;55.09;99946.84;126424;1289;128231;-65
2023/08/08 07:27:46;;;;;;;1.40;1.00;;;;;;;23.49;54.40;99943.00;125926;1292;115298;-64
2023/08/08 07:31:33;;;;;;;3.70;1.10;;;;;;;23.51;53.41;99943.95;125765;1313;114799;-64
2023/08/08 07:35:21;;;;;;;4.40;0.90;;;;;;;23.43;52.85;99943.84;126121;1312;115070;-64
2023/08/08 07:39:09;;;;;;;3.60;1.40;;;;;;;23.31;51.48;99951.75;125610;1312;114897;-64
2023/08/08 07:43:04;;;;;;;2.40;1.30;;;;;;;23.11;51.76;99963.19;125502;1323;127822;-64
2023/08/08 07:46:54;;;;;;;;;;;;;;;;;;;;;
2023/08/08 07:50:39;;;;;;;2.30;1.10;;;;;;;23.21;51.38;99961.52;125813;1300;114958;-67
2023/08/08 07:54:33;;;;;;;1.20;1.00;;;;;;;23.25;51.20;99962.27;125448;1322;114986;-68
2023/08/08 07:58:08;;;;;;;1.60;0.90;;;;;;;23.26;50.53;99959.60;125237;1322;115165;-64
2023/08/08 08:02:09;;;;;;;6.20;1.20;;;;;;;23.47;50.49;99961.48;125282;1321;129565;-64
2023/08/08 08:05:54;;;;;;;2.60;1.10;;;;;;;24.13;49.88;99956.52;125389;1319;115521;-65
2023/08/08 08:09:56;;;;;;;1.10;1.00;;;;;;;24.86;49.28;99954.75;125271;1319;114954;-64
2023/08/08 08:13:49;;;;;;;;;;;;;;;;;;;;;
2023/08/08 08:17:51;;;;;;;5.00;1.10;;;;;;;25.78;47.77;99943.96;125711;1317;114961;-63
2023/08/08 08:21:46;;;;;;;2.10;1.30;;;;;;;25.58;47.43;99945.33;125433;1303;121098;-79
2023/08/08 08:29:48;;;;;;;;;;;;;;;;;;;;;
2023/08/08 08:33:33;;;;;;;1.40;1.30;;;;;;;26.40;45.27;99939.14;128703;1279;119679;-64
2023/08/08 08:37:19;;;;;;;1.20;0.90;;;;;;;26.38;44.73;99935.65;128772;1279;114767;-63
2023/08/08 08:41:06;;;;;;;2.00;1.00;;;;;;;26.21;44.08;99938.88;128604;1278;114883;-64
2023/08/08 08:44:42;;;;;;;1.50;1.10;;;;;;;25.83;43.82;99941.38;124615;1291;114995;-64
2023/08/08 08:48:23;;;;;;;1.70;1.20;;;;;;;25.56;44.16;99940.38;128871;1276;114845;-63
2023/08/08 08:52:05;;;;;;;;;;;;;;;;;;;;;
2023/08/08 08:56:01;;;;;;;;;;;;;;;;;;;;;
2023/08/08 08:59:50;;;;;;;1.60;1.20;;;;;;;24.92;44.71;99941.84;126412;1296;114873;-63
2023/08/08 09:03:39;;;;;;;3.50;1.20;;;;;;;25.17;44.69;99938.83;125975;1302;114973;-63
2023/08/08 09:07:14;;;;;;;1.20;0.90;;;;;;;25.53;44.20;99935.28;125490;1317;115294;-64
2023/08/08 09:10:58;;;;;;;;;;;;;;;;;;;;;
2023/08/08 09:14:51;;;;;;;3.00;1.00;;;;;;;25.63;43.85;99943.65;126088;1296;119541;-63
2023/08/08 09:18:34;;;;;;;1.10;0.80;;;;;;;25.67;43.33;99940.59;125122;1326;116207;-62
2023/08/08 09:22:34;;;;;;;;;;;;;;;;;;;;;
2023/08/08 09:26:34;;;;;;;;;;;;;;;;;;;;;
2023/08/08 09:30:18;;;;;;;1.00;0.80;;;;;;;25.54;42.61;99940.77;124018;1317;115001;-63
2023/08/08 09:34:07;;;;;;;;;;;;;;;;;;;;;
2023/08/08 09:38:01;;;;;;;;;;;;;;;;;;;;;
2023/08/08 09:41:47;;;;;;;;;;;;;;;;;;;;;
2023/08/08 09:45:27;;;;;;;;;;;;;;;;;;;;;
2023/08/08 09:49:24;;;;;;;2.30;0.90;;;;;;;25.65;42.58;99952.11;125873;1298;114807;-65
2023/08/08 09:53:01;;;;;;;;;;;;;;;;;;;;;
2023/08/08 09:56:39;;;;;;;;;;;;;;;;;;;;;
2023/08/08 10:00:41;;;;;;;0.90;0.60;;;;;;;25.63;42.05;99946.91;126058;1296;115595;-62
2023/08/08 10:04:42;;;;;;;3.40;1.10;;;;;;;25.48;41.51;99946.80;125838;1306;114935;-64
2023/08/08 10:08:30;;;;;;;2.60;1.30;;;;;;;25.19;41.18;99940.25;125398;1315;114929;-63
2023/08/08 10:12:23;;;;;;;1.70;1.00;;;;;;;25.06;41.68;99940.06;125093;1318;121425;-72
2023/08/08 10:20:53;;;;;;;5.30;1.30;;;;;;;24.78;41.26;99939.79;126090;1298;639281;-78
2023/08/08 10:24:47;;;;;;;3.90;1.40;;;;;;;24.59;41.10;99936.33;128363;1288;118974;-77
2023/08/08 10:28:37;;;;;;;2.00;0.90;;;;;;;24.37;41.13;99940.94;127718;1284;114919;-78
2023/08/08 10:36:38;;;;;;;1.50;1.40;;;;;;;24.47;41.81;99938.37;127409;1285;635861;-74
2023/08/08 10:44:27;;;;;;;2.90;1.20;;;;;;;24.80;41.69;99937.73;129134;1270;114941;-68
2023/08/08 10:48:20;;;;;;;1.90;0.80;;;;;;;24.99;41.52;99938.41;129501;1269;114761;-64
2023/08/08 10:52:15;;;;;;;1.60;0.90;;;;;;;25.29;41.27;99936.59;124334;1275;114761;-65
2023/08/08 10:56:12;;;;;;;2.40;1.60;;;;;;;25.40;40.82;99936.08;128514;1288;114841;-65
2023/08/08 10:59:55;;;;;;;5.70;1.50;;;;;;;25.28;40.96;99930.88;129015;1275;114877;-64
2023/08/08 11:03:55;;;;;;;1.70;1.10;;;;;;;24.99;40.37;99934.20;128354;1294;120019;-64
2023/08/08 11:07:37;;;;;;;;;;;;;;;;;;;;;
2023/08/08 11:11:13;;;;;;;5.60;1.40;;;;;;;24.58;41.12;99934.58;126828;1289;114885;-63
2023/08/08 11:14:51;;;;;;;;;;;;;;;;;;;;;
2023/08/08 11:18:39;;;;;;;1.30;1.20;;;;;;;24.41;41.32;99927.15;128568;1277;114981;-62
2023/08/08 11:22:27;;;;;;;1.80;1.30;;;;;;;24.18;41.62;99932.80;128440;1277;129211;-65
2023/08/08 11:25:50;;;;;;;1.60;1.30;;;;;;;23.96;41.62;99929.09;128161;1277;115101;-68
2023/08/08 11:29:37;;;;;;;;;;;;;;;;;;;;;
2023/08/08 11:33:46;;;;;;;1.30;1.10;;;;;;;23.33;41.89;99928.54;126571;1295;635890;-67
2023/08/08 11:37:02;;;;;;;2.60;1.30;;;;;;;23.19;42.38;99930.35;129430;1280;128795;-68
2023/08/08 11:40:46;;;;;;;2.40;1.20;;;;;;;23.14;42.49;99931.53;129082;1272;115208;-68
2023/08/08 11:47:54;;;;;;;2.10;1.10;;;;;;;22.86;42.84;99924.84;124908;1281;5146970;-69
2023/08/08 11:51:30;;;;;;;3.10;1.30;;;;;;;22.83;42.99;99920.56;128407;1280;114859;-68
2023/08/08 11:55:05;;;;;;;;;;;;;;;;;;;;;
2023/08/08 11:58:34;;;;;;;2.70;1.30;;;;;;;22.96;43.28;99923.21;128124;1270;114835;-67
2023/08/08 12:02:19;;;;;;;2.10;1.60;;;;;;;23.12;43.36;99922.06;128697;1280;114802;-68
2023/08/08 12:05:51;;;;;;;3.70;1.20;;;;;;;23.26;43.71;99915.60;128126;1282;114857;-69
2023/08/08 12:09:20;;;;;;;2.50;1.30;;;;;;;23.27;43.60;99913.89;128682;1285;114915;-68
2023/08/08 12:12:35;;;;;;;2.40;1.50;;;;;;;23.24;43.71;99919.73;128733;1295;127880;-69
2023/08/08 12:15:57;;;;;;;;;;;;;;;23.17;43.27;99916.96;128595;1273;114917;-68
2023/08/08 12:19:31;;;;;;;3.70;1.70;;;;;;;23.02;43.57;99920.98;128797;1277;114912;-67
2023/08/08 12:23:09;;;;;;;1.70;1.40;;;;;;;22.95;43.75;99924.21;128792;1294;114856;-68
2023/08/08 12:26:24;;;;;;;3.70;1.60;;;;;;;23.02;43.77;99920.00;128136;1291;114886;-67
2023/08/08 12:30:17;;;;;;;;;;;;;;;;;;;;;
2023/08/08 12:33:43;;;;;;;3.10;1.50;;;;;;;23.04;43.89;99916.83;127248;1285;115354;-68
2023/08/08 12:37:23;;;;;;;5.60;2.00;;;;;;;23.12;44.25;99917.31;127109;1289;114966;-67
2023/08/08 12:41:29;;;;;;;2.90;1.90;;;;;;;23.17;44.19;99913.83;126589;1292;115133;-69
2023/08/08 12:45:22;;;;;;;3.30;1.80;;;;;;;23.27;44.24;99910.07;127202;1307;114922;-69
2023/08/08 12:49:01;;;;;;;3.20;1.70;;;;;;;23.34;43.97;99912.89;126808;1286;128918;-70
2023/08/08 12:53:07;;;;;;;3.40;1.40;;;;;;;23.44;44.26;99913.13;127010;1291;114931;-68
2023/08/08 12:56:58;;;;;;;1.60;1.30;;;;;;;23.47;43.67;99910.63;126486;1292;114918;-69
2023/08/08 13:00:26;;;;;;;1.40;1.30;;;;;;;23.49;43.48;99910.20;126670;1295;114928;-71
2023/08/08 13:04:40;;;;;;;2.20;1.30;;;;;;;23.51;43.52;99910.90;126945;1304;114970;-68
2023/08/08 13:08:29;;;;;;;3.80;1.40;;;;;;;23.60;43.31;99913.17;127617;1286;128904;-69
2023/08/08 13:11:58;;;;;;;1.90;1.40;;;;;;;23.66;43.38;99910.50;127732;1285;116225;-67
2023/08/08 13:15:49;;;;;;;;;;;;;;;;;;;;;
2023/08/08 13:19:16;;;;;;;2.60;1.00;;;;;;;23.80;43.15;99907.72;128599;1280;114947;-69
2023/08/08 13:22:29;;;;;;;4.30;1.40;;;;;;;23.79;43.14;99905.11;128431;1296;114777;-67
2023/08/08 13:26:03;;;;;;;2.90;1.70;;;;;;;23.80;42.81;99908.38;128574;1273;128604;-68
2023/08/08 13:29:38;;;;;;;1.60;1.50;;;;;;;23.82;42.69;99907.24;128691;1273;115256;-68
2023/08/08 13:33:21;;;;;;;2.80;1.50;;;;;;;23.81;42.66;99901.95;127909;1281;114897;-72
2023/08/08 13:37:15;;;;;;;;;;;;;;;;;;;;;
2023/08/08 13:41:00;;;;;;;;;;;;;;;;;;;;;
2023/08/08 13:48:43;;;;;;;2.80;1.60;;;;;;;23.67;43.09;99904.97;127859;1281;115287;-67
2023/08/08 13:52:26;;;;;;;2.60;1.70;;;;;;;23.62;43.31;99907.65;128145;1280;114804;-68
2023/08/08 13:56:20;;;;;;;4.40;1.50;;;;;;;23.60;43.47;99908.58;127607;1292;114863;-67
2023/08/08 14:00:10;;;;;;;;;;;;;;;;;;;;;
2023/08/08 14:04:07;;;;;;;2.60;1.60;;;;;;;23.54;43.75;99897.65;127872;1297;129813;-67
2023/08/08 14:07:49;;;;;;;;;;;;;;;;;;;;;
2023/08/08 14:11:44;;;;;;;2.40;1.30;;;;;;;23.55;43.53;99894.40;126937;1292;114870;-68
2023/08/08 14:15:33;;;;;;;2.40;1.40;;;;;;;23.49;43.61;99901.04;126326;1299;114973;-69
2023/08/08 14:19:24;;;;;;;4.00;1.30;;;;;;;23.51;43.49;99895.73;126372;1314;114855;-68
2023/08/08 14:23:04;;;;;;;3.30;1.40;;;;;;;23.47;43.02;99898.71;126438;1295;129899;-69
2023/08/08 14:26:47;;;;;;;;;;;;;;;;;;;;;
2023/08/08 14:30:47;;;;;;;;;;;;;;;;;;;;;
2023/08/08 14:34:14;;;;;;;1.30;1.20;;;;;;;23.25;42.65;99889.84;125595;1315;115054;-68
2023/08/08 14:38:07;;;;;;;2.70;1.40;;;;;;;23.21;42.79;99889.62;125578;1314;114975;-68
2023/08/08 14:41:50;;;;;;;;;;;;;;;;;;;;;
2023/08/08 14:45:09;;;;;;;4.70;1.40;;;;;;;22.90;42.48;99891.80;125675;1298;115243;-67
2023/08/08 14:48:35;;;;;;;3.60;1.40;;;;;;;22.80;42.23;99891.50;125943;1298;114932;-67
2023/08/08 14:52:27;;;;;;;3.30;1.50;;;;;;;22.66;42.28;99889.33;126254;1301;115161;-68
2023/08/08 14:56:14;;;;;;;5.00;1.90;;;;;;;22.48;42.21;99888.23;126734;1296;114856;-67
2023/08/08 14:59:57;;;;;;;2.40;1.40;;;;;;;22.26;42.14;99885.27;126178;1297;130570;-68
2023/08/08 15:03:44;;;;;;;;;;;;;;;;;;;;;
2023/08/08 15:07:39;;;;;;;1.30;1.20;;;;;;;21.96;42.48;99882.38;125765;1304;115011;-67
2023/08/08 15:11:16;;;;;;;;;;;;;;;;;;;;;
2023/08/08 15:14:57;;;;;;;4.70;1.30;;;;;;;21.74;42.41;99880.63;126275;1298;114983;-68
2023/08/08 15:18:38;;;;;;;2.40;1.30;;;;;;;21.68;42.83;99879.66;126048;1295;128048;-67
2023/08/08 15:22:10;;;;;;;3.50;1.40;;;;;;;21.62;43.19;99887.95;126517;1306;115445;-69
2023/08/08 15:26:08;;;;;;;2.60;1.60;;;;;;;21.60;43.31;99884.84;126365;1298;114961;-69
2023/08/08 15:30:03;;;;;;;;;;;;;;;;;;;;;
2023/08/08 15:34:00;;;;;;;3.50;1.50;;;;;;;21.65;43.75;99891.44;127334;1295;114845;-69
2023/08/08 15:37:45;;;;;;;2.30;1.70;;;;;;;21.71;44.16;99887.52;127015;1293;128528;-68
2023/08/08 15:41:35;;;;;;;;;;;;;;;;;;;;;
2023/08/08 15:45:17;;;;;;;;;;;;;;;;;;;;;
2023/08/08 15:49:12;;;;;;;;;;;;;;;;;;;;;
2023/08/08 15:53:12;;;;;;;;;;;;;;;;;;;;;
2023/08/08 15:56:54;;;;;;;3.60;2.20;;;;;;;21.22;44.71;99883.17;127640;1299;129861;-70
2023/08/08 16:00:29;;;;;;;;;;;;;;;;;;;;;
2023/08/08 16:04:18;;;;;;;4.10;1.70;;;;;;;21.05;45.08;99884.91;127772;1285;116495;-69
2023/08/08 16:08:13;;;;;;;;;;;;;;;;;;;;;
2023/08/08 16:12:06;;;;;;;;;;;;;;;;;;;;;
2023/08/08 16:15:40;;;;;;;3.70;1.80;;;;;;;20.85;45.14;99887.87;125726;1317;129750;-67
2023/08/08 16:19:28;;;;;;;2.40;1.50;;;;;;;20.82;45.67;99896.06;126122;1298;116369;-67
2023/08/08 16:23:08;;;;;;;2.20;1.40;;;;;;;20.75;45.55;99889.85;126106;1297;114984;-66
2023/08/08 16:26:46;;;;;;;2.70;1.40;;;;;;;20.64;45.81;99883.82;126299;1298;114950;-67
2023/08/08 16:30:28;;;;;;;5.50;2.10;;;;;;;20.59;46.30;99883.58;126320;1310;114919;-67
2023/08/08 16:34:37;;;;;;;5.00;1.90;;;;;;;20.54;46.44;99876.72;126314;1295;130315;-68
2023/08/08 16:38:27;;;;;;;2.70;1.70;;;;;;;20.47;46.90;99876.27;126309;1314;115486;-68
2023/08/08 16:42:10;;;;;;;2.30;1.60;;;;;;;20.37;47.15;99868.16;126283;1298;114831;-67
2023/08/08 16:45:42;;;;;;;4.40;1.70;;;;;;;20.18;47.33;99867.80;127545;1301;114882;-67
2023/08/08 16:49:45;;;;;;;;;;;;;;;;;;;;;
2023/08/08 16:53:22;;;;;;;;;;;;;;;;;;;;;
2023/08/08 16:57:13;;;;;;;;;;;;;;;;;;;;;
2023/08/08 17:00:56;;;;;;;;;;;;;;;;;;;;;
2023/08/08 17:04:59;;;;;;;1.80;1.50;;;;;;;19.38;49.28;99873.73;128264;1283;114757;-68
2023/08/08 17:09:00;;;;;;;7.90;2.00;;;;;;;19.22;49.39;99872.09;126981;1289;114862;-68
2023/08/08 17:12:59;;;;;;;4.00;2.00;;;;;;;19.06;50.28;99875.91;126096;1298;129176;-68
2023/08/08 17:16:46;;;;;;;;;;;;;;;;;;;;;
2023/08/08 17:20:32;;;;;;;1.80;1.70;;;;;;;18.82;51.13;99872.29;125090;1304;115068;-69
2023/08/08 17:24:07;;;;;;;4.50;1.50;;;;;;;18.71;51.08;99869.30;124283;1334;115291;-67
2023/08/08 17:27:46;;;;;;;4.40;2.00;;;;;;;18.65;50.84;99868.62;126489;1303;635696;-71
2023/08/08 17:31:14;;;;;;;3.70;1.90;;;;;;;18.57;50.99;99870.60;129186;1269;129008;-69
2023/08/08 17:34:25;;;;;;;1.80;1.70;;;;;;;18.55;51.00;99875.80;129254;1289;115256;-67
2023/08/08 17:37:30;;;;;;;3.60;1.90;;;;;;;18.51;51.22;99873.25;129322;1271;114793;-67
2023/08/08 17:41:05;;;;;;;;;;;;;;;;;;;;;
2023/08/08 17:44:27;;;;;;;3.30;1.90;;;;;;;18.44;51.58;99881.70;129467;1264;114710;-67
2023/08/08 17:48:02;;;;;;;3.80;2.10;;;;;;;18.36;51.77;99884.70;129126;1264;114831;-69
2023/08/08 17:51:10;;;;;;;4.80;1.60;;;;;;;18.30;51.70;99886.49;129427;1270;128695;-67
2023/08/08 17:55:06;;;;;;;2.60;1.70;;;;;;;18.24;52.11;99887.98;129446;1269;114689;-68
2023/08/08 17:58:48;;;;;;;;;;;;;;;;;;;;;
2023/08/08 18:02:12;;;;;;;4.80;1.90;;;;;;;18.10;52.60;99897.67;128733;1285;114851;-66
2023/08/08 18:06:14;;;;;;;2.00;1.90;;;;;;;18.04;52.82;99899.98;128972;1276;114889;-69
2023/08/08 18:10:01;;;;;;;;;;;;;;;;;;;;;
2023/08/08 18:13:58;;;;;;;2.30;1.70;;;;;;;17.92;53.30;99920.55;126352;1292;116572;-68
2023/08/08 18:17:48;;;;;;;3.20;1.70;;;;;;;17.87;53.64;99937.43;125838;1300;114898;-69
2023/08/08 18:21:36;;;;;;;;;;;;;;;;;;;;;
2023/08/08 18:25:19;;;;;;;;;;;;;;;;;;;;;
2023/08/08 18:29:08;;;;;;;3.00;1.70;;;;;;;17.48;55.99;99915.63;126017;1312;128072;-67
2023/08/08 18:33:13;;;;;;;;;;;;;;;;;;;;;
2023/08/08 18:37:02;;;;;;;2.70;2.40;;;;;;;17.20;57.59;99901.00;125682;1312;114932;-67
2023/08/08 18:41:00;;;;;;;3.10;2.10;;;;;;;17.08;58.39;99908.48;125584;1320;115108;-66
2023/08/08 18:44:57;;;;;;;3.80;2.10;;;;;;;16.96;59.03;99928.52;125414;1323;114939;-66
2023/08/08 18:48:47;;;;;;;2.60;2.00;;;;;;;16.88;59.46;99959.53;125064;1310;129655;-66
2023/08/08 18:52:35;;;;;;;4.90;2.10;;;;;;;16.78;60.17;99981.19;125412;1307;115292;-67
2023/08/08 18:56:29;;;;;;;2.50;1.70;;;;;;;16.67;60.13;99993.44;125868;1319;114900;-67
2023/08/08 19:00:23;;;;;;;5.80;2.10;;;;;;;16.55;59.88;100001.48;125952;1311;114889;-67
2023/08/08 19:04:14;;;;;;;;;;;;;;;;;;;;;
2023/08/08 19:07:43;;;;;;;6.00;2.10;;;;;;;16.41;60.31;100002.88;125446;1305;129743;-67
2023/08/08 19:11:19;;;;;;;;;;;;;;;;;;;;;
2023/08/08 19:15:09;;;;;;;3.90;2.00;;;;;;;16.27;61.22;100017.52;126082;1314;114779;-67
2023/08/08 19:18:54;;;;;;;2.80;2.30;;;;;;;16.22;61.73;100016.48;126299;1296;114936;-68
2023/08/08 19:22:23;;;;;;;8.80;2.40;;;;;;;16.16;62.28;100009.02;125988;1301;114823;-67
2023/08/08 19:25:51;;;;;;;;;;;;;;;;;;;;;
2023/08/08 19:29:43;;;;;;;3.00;2.70;;;;;;;16.04;62.73;99995.48;125495;1298;116448;-67
2023/08/08 19:33:45;;;;;;;5.80;2.50;;;;;;;16.00;63.22;99992.21;125766;1305;115287;-66
2023/08/08 19:37:18;;;;;;;3.90;2.20;;;;;;;15.93;63.74;99987.38;124490;1315;114894;-66
2023/08/08 19:41:00;;;;;;;4.70;2.50;;;;;;;15.89;64.12;99984.98;124790;1314;114988;-66
2023/08/08 19:44:04;;;;;;;3.00;2.60;;;;;;;15.83;64.46;99982.29;124218;1314;130062;-66
2023/08/08 19:47:22;;;;;;;6.00;2.70;;;;;;;15.80;64.85;99982.86;124679;1313;115002;-68
2023/08/08 19:50:42;;;;;;;;;;;;;;;;;;;;;
2023/08/08 19:54:16;;;;;;;;;;;;;;;;;;;;;
2023/08/08 19:58:02;;;;;;;;;;;;;;;;;;;;;
2023/08/08 20:01:37;;;;;;;;;;;;;;;;;;;;;
2023/08/08 20:05:08;;;;;;;3.70;2.30;;;;;;;15.67;66.11;99981.92;126141;1302;115857;-66
2023/08/08 20:09:17;;;;;;;5.00;2.60;;;;;;;15.65;66.37;99982.76;126186;1293;114965;-68
2023/08/08 20:13:04;;;;;;;;;;;;;;;;;;;;;
2023/08/08 20:17:09;;;;;;;3.20;2.30;;;;;;;15.61;66.69;99984.30;126898;1293;114963;-67
2023/08/08 20:21:02;;;;;;;4.20;2.40;;;;;;;15.62;67.21;99984.65;127442;1302;129003;-68
2023/08/08 20:24:57;;;;;;;;;;;;;;;;;;;;;
2023/08/08 20:28:43;;;;;;;;;;;;;;;;;;;;;
2023/08/08 20:32:46;;;;;;;3.60;2.00;;;;;;;15.59;67.38;99982.14;125748;1298;115057;-69
2023/08/08 20:36:37;;;;;;;2.90;2.10;;;;;;;15.57;67.56;99980.34;125093;1320;114951;-68
2023/08/08 20:40:22;;;;;;;5.20;2.00;;;;;;;15.57;68.18;99980.69;124292;1333;129469;-67
2023/08/08 20:44:08;;;;;;;;;;;;;;;;;;;;;
2023/08/08 20:48:16;;;;;;;5.70;2.60;;;;;;;15.60;68.27;99981.02;126158;1297;636667;-68
2023/08/08 20:52:13;;;;;;;5.60;1.90;;;;;;;15.58;68.41;99987.80;128823;1294;129923;-65
2023/08/08 20:56:09;;;;;;;;;;;;;;;;;;;;;
2023/08/08 21:00:05;;;;;;;;;;;;;;;;;;;;;
2023/08/08 21:03:58;;;;;;;3.10;2.00;;;;;;;15.55;68.57;99980.66;122435;1300;115358;-65
2023/08/08 21:08:00;;;;;;;5.20;2.00;;;;;;;15.51;68.67;99973.19;124984;1327;114966;-66
2023/08/08 21:16:05;;;;;;;;;;;;;;;;;;;;;
2023/08/08 21:19:53;;;;;;;;;;;;;;;;;;;;;
2023/08/08 21:23:58;;;;;;;2.70;1.70;;;;;;;15.48;69.33;99979.89;129239;1269;115166;-64
2023/08/08 21:28:00;;;;;;;3.10;2.00;;;;;;;15.47;69.78;99982.83;128032;1283;114846;-65